<?xml version="1.0" encoding="UTF-8" standalone="no" ?>
<gpx xmlns="http://www.topografix.com/GPX/1/1" xmlns:xsi="http://www.w3.org/2001/XMLSchema-instance" xsi:schemaLocation="http://www.topografix.com/GPX/1/1 http://www.topografix.com/GPX/1/1/gpx.xsd" version="1.1" creator="VisuGPX - https://www.visugpx.com">
  <metadata>
    <name>12738079-MONTVAL 17KM</name>
  </metadata>
  <trk>
    <name><![CDATA[12738079-MONTVAL 17KM]]></name>
    <trkseg>
      <trkpt lat="47.69428" lon="0.41772">
        <ele>58</ele>
        <time>2021-06-10T15:27:07Z</time>
      </trkpt>
      <trkpt lat="47.69442" lon="0.4175">
        <ele>58</ele>
        <time>2021-06-10T15:27:34Z</time>
      </trkpt>
      <trkpt lat="47.69448" lon="0.41731">
        <ele>58</ele>
        <time>2021-06-10T15:27:53Z</time>
      </trkpt>
      <trkpt lat="47.69433" lon="0.41703">
        <ele>57</ele>
        <time>2021-06-10T15:28:25Z</time>
      </trkpt>
      <trkpt lat="47.69437" lon="0.41686">
        <ele>57</ele>
        <time>2021-06-10T15:28:41Z</time>
      </trkpt>
      <trkpt lat="47.69433" lon="0.41634">
        <ele>55</ele>
        <time>2021-06-10T15:29:28Z</time>
      </trkpt>
      <trkpt lat="47.69436" lon="0.41609">
        <ele>55</ele>
        <time>2021-06-10T15:29:51Z</time>
      </trkpt>
      <trkpt lat="47.69461" lon="0.41568">
        <ele>54</ele>
        <time>2021-06-10T15:30:41Z</time>
      </trkpt>
      <trkpt lat="47.69475" lon="0.41567">
        <ele>54</ele>
        <time>2021-06-10T15:31:00Z</time>
      </trkpt>
      <trkpt lat="47.69498" lon="0.41561">
        <ele>54</ele>
        <time>2021-06-10T15:31:31Z</time>
      </trkpt>
      <trkpt lat="47.69514" lon="0.41561">
        <ele>54</ele>
        <time>2021-06-10T15:31:52Z</time>
      </trkpt>
      <trkpt lat="47.6952" lon="0.41573">
        <ele>54</ele>
        <time>2021-06-10T15:32:06Z</time>
      </trkpt>
      <trkpt lat="47.69532" lon="0.41625">
        <ele>55</ele>
        <time>2021-06-10T15:32:55Z</time>
      </trkpt>
      <trkpt lat="47.69549" lon="0.41606">
        <ele>54</ele>
        <time>2021-06-10T15:33:23Z</time>
      </trkpt>
      <trkpt lat="47.69626" lon="0.41603">
        <ele>55</ele>
        <time>2021-06-10T15:35:06Z</time>
      </trkpt>
      <trkpt lat="47.69645" lon="0.41609">
        <ele>56</ele>
        <time>2021-06-10T15:35:32Z</time>
      </trkpt>
      <trkpt lat="47.69662" lon="0.41611">
        <ele>56</ele>
        <time>2021-06-10T15:35:55Z</time>
      </trkpt>
      <trkpt lat="47.69696" lon="0.41601">
        <ele>56</ele>
        <time>2021-06-10T15:36:41Z</time>
      </trkpt>
      <trkpt lat="47.69712" lon="0.41629">
        <ele>56</ele>
        <time>2021-06-10T15:37:14Z</time>
      </trkpt>
      <trkpt lat="47.69703" lon="0.41671">
        <ele>57</ele>
        <time>2021-06-10T15:37:54Z</time>
      </trkpt>
      <trkpt lat="47.697" lon="0.41706">
        <ele>57</ele>
        <time>2021-06-10T15:38:25Z</time>
      </trkpt>
      <trkpt lat="47.69703" lon="0.41765">
        <ele>58</ele>
        <time>2021-06-10T15:39:18Z</time>
      </trkpt>
      <trkpt lat="47.69707" lon="0.41796">
        <ele>60</ele>
        <time>2021-06-10T15:39:47Z</time>
      </trkpt>
      <trkpt lat="47.69662" lon="0.41821">
        <ele>61</ele>
        <time>2021-06-10T15:40:51Z</time>
      </trkpt>
      <trkpt lat="47.69644" lon="0.41841">
        <ele>61</ele>
        <time>2021-06-10T15:41:21Z</time>
      </trkpt>
      <trkpt lat="47.69622" lon="0.41856">
        <ele>61</ele>
        <time>2021-06-10T15:41:53Z</time>
      </trkpt>
      <trkpt lat="47.69579" lon="0.41874">
        <ele>60</ele>
        <time>2021-06-10T15:42:53Z</time>
      </trkpt>
      <trkpt lat="47.69561" lon="0.41898">
        <ele>61</ele>
        <time>2021-06-10T15:43:25Z</time>
      </trkpt>
      <trkpt lat="47.69533" lon="0.41944">
        <ele>62</ele>
        <time>2021-06-10T15:44:21Z</time>
      </trkpt>
      <trkpt lat="47.69533" lon="0.41944">
        <ele>62</ele>
        <time>2021-06-10T15:44:21Z</time>
      </trkpt>
      <trkpt lat="47.69554" lon="0.41962">
        <ele>62</ele>
        <time>2021-06-10T15:44:53Z</time>
      </trkpt>
      <trkpt lat="47.69584" lon="0.41999">
        <ele>62</ele>
        <time>2021-06-10T15:45:45Z</time>
      </trkpt>
      <trkpt lat="47.69597" lon="0.42026">
        <ele>63</ele>
        <time>2021-06-10T15:46:15Z</time>
      </trkpt>
      <trkpt lat="47.69608" lon="0.42071">
        <ele>64</ele>
        <time>2021-06-10T15:46:58Z</time>
      </trkpt>
      <trkpt lat="47.69618" lon="0.42135">
        <ele>65</ele>
        <time>2021-06-10T15:47:57Z</time>
      </trkpt>
      <trkpt lat="47.69633" lon="0.42203">
        <ele>66</ele>
        <time>2021-06-10T15:49:01Z</time>
      </trkpt>
      <trkpt lat="47.69659" lon="0.4226">
        <ele>62</ele>
        <time>2021-06-10T15:50:03Z</time>
      </trkpt>
      <trkpt lat="47.69669" lon="0.4229">
        <ele>63</ele>
        <time>2021-06-10T15:50:33Z</time>
      </trkpt>
      <trkpt lat="47.69685" lon="0.42315">
        <ele>64</ele>
        <time>2021-06-10T15:51:04Z</time>
      </trkpt>
      <trkpt lat="47.69707" lon="0.42376">
        <ele>65</ele>
        <time>2021-06-10T15:52:06Z</time>
      </trkpt>
      <trkpt lat="47.69732" lon="0.42429">
        <ele>64</ele>
        <time>2021-06-10T15:53:04Z</time>
      </trkpt>
      <trkpt lat="47.69747" lon="0.42514">
        <ele>65</ele>
        <time>2021-06-10T15:54:23Z</time>
      </trkpt>
      <trkpt lat="47.6976" lon="0.4254">
        <ele>66</ele>
        <time>2021-06-10T15:54:52Z</time>
      </trkpt>
      <trkpt lat="47.69775" lon="0.42556">
        <ele>68</ele>
        <time>2021-06-10T15:55:17Z</time>
      </trkpt>
      <trkpt lat="47.69797" lon="0.42574">
        <ele>69</ele>
        <time>2021-06-10T15:55:51Z</time>
      </trkpt>
      <trkpt lat="47.69804" lon="0.42606">
        <ele>70</ele>
        <time>2021-06-10T15:56:21Z</time>
      </trkpt>
      <trkpt lat="47.69793" lon="0.42695">
        <ele>71</ele>
        <time>2021-06-10T15:57:42Z</time>
      </trkpt>
      <trkpt lat="47.69812" lon="0.42742">
        <ele>71</ele>
        <time>2021-06-10T15:58:31Z</time>
      </trkpt>
      <trkpt lat="47.69819" lon="0.42774">
        <ele>72</ele>
        <time>2021-06-10T15:59:02Z</time>
      </trkpt>
      <trkpt lat="47.6985" lon="0.42866">
        <ele>77</ele>
        <time>2021-06-10T16:00:34Z</time>
      </trkpt>
      <trkpt lat="47.69882" lon="0.42918">
        <ele>78</ele>
        <time>2021-06-10T16:01:37Z</time>
      </trkpt>
      <trkpt lat="47.69894" lon="0.42948">
        <ele>77</ele>
        <time>2021-06-10T16:02:09Z</time>
      </trkpt>
      <trkpt lat="47.69912" lon="0.42967">
        <ele>77</ele>
        <time>2021-06-10T16:02:38Z</time>
      </trkpt>
      <trkpt lat="47.69928" lon="0.42994">
        <ele>75</ele>
        <time>2021-06-10T16:03:10Z</time>
      </trkpt>
      <trkpt lat="47.69995" lon="0.43023">
        <ele>79</ele>
        <time>2021-06-10T16:04:43Z</time>
      </trkpt>
      <trkpt lat="47.70016" lon="0.43038">
        <ele>80</ele>
        <time>2021-06-10T16:05:15Z</time>
      </trkpt>
      <trkpt lat="47.70032" lon="0.43061">
        <ele>80</ele>
        <time>2021-06-10T16:05:44Z</time>
      </trkpt>
      <trkpt lat="47.70069" lon="0.43106">
        <ele>81</ele>
        <time>2021-06-10T16:06:48Z</time>
      </trkpt>
      <trkpt lat="47.7009" lon="0.43127">
        <ele>81</ele>
        <time>2021-06-10T16:07:22Z</time>
      </trkpt>
      <trkpt lat="47.70136" lon="0.43144">
        <ele>80</ele>
        <time>2021-06-10T16:08:25Z</time>
      </trkpt>
      <trkpt lat="47.70156" lon="0.43162">
        <ele>79</ele>
        <time>2021-06-10T16:08:56Z</time>
      </trkpt>
      <trkpt lat="47.70178" lon="0.43171">
        <ele>79</ele>
        <time>2021-06-10T16:09:27Z</time>
      </trkpt>
      <trkpt lat="47.70198" lon="0.43188">
        <ele>81</ele>
        <time>2021-06-10T16:09:58Z</time>
      </trkpt>
      <trkpt lat="47.70221" lon="0.43195">
        <ele>82</ele>
        <time>2021-06-10T16:10:29Z</time>
      </trkpt>
      <trkpt lat="47.70236" lon="0.43219">
        <ele>82</ele>
        <time>2021-06-10T16:10:58Z</time>
      </trkpt>
      <trkpt lat="47.70259" lon="0.43231">
        <ele>83</ele>
        <time>2021-06-10T16:11:31Z</time>
      </trkpt>
      <trkpt lat="47.70278" lon="0.43249">
        <ele>83</ele>
        <time>2021-06-10T16:12:01Z</time>
      </trkpt>
      <trkpt lat="47.70295" lon="0.43271">
        <ele>84</ele>
        <time>2021-06-10T16:12:31Z</time>
      </trkpt>
      <trkpt lat="47.70316" lon="0.4329">
        <ele>85</ele>
        <time>2021-06-10T16:13:04Z</time>
      </trkpt>
      <trkpt lat="47.70359" lon="0.43317">
        <ele>85</ele>
        <time>2021-06-10T16:14:06Z</time>
      </trkpt>
      <trkpt lat="47.70379" lon="0.43333">
        <ele>85</ele>
        <time>2021-06-10T16:14:36Z</time>
      </trkpt>
      <trkpt lat="47.70397" lon="0.43355">
        <ele>84</ele>
        <time>2021-06-10T16:15:07Z</time>
      </trkpt>
      <trkpt lat="47.70413" lon="0.43381">
        <ele>83</ele>
        <time>2021-06-10T16:15:39Z</time>
      </trkpt>
      <trkpt lat="47.7043" lon="0.43403">
        <ele>84</ele>
        <time>2021-06-10T16:16:09Z</time>
      </trkpt>
      <trkpt lat="47.7044" lon="0.43435">
        <ele>85</ele>
        <time>2021-06-10T16:16:41Z</time>
      </trkpt>
      <trkpt lat="47.70458" lon="0.43456">
        <ele>87</ele>
        <time>2021-06-10T16:17:11Z</time>
      </trkpt>
      <trkpt lat="47.70479" lon="0.43472">
        <ele>88</ele>
        <time>2021-06-10T16:17:43Z</time>
      </trkpt>
      <trkpt lat="47.70502" lon="0.43481">
        <ele>89</ele>
        <time>2021-06-10T16:18:15Z</time>
      </trkpt>
      <trkpt lat="47.70521" lon="0.435">
        <ele>91</ele>
        <time>2021-06-10T16:18:45Z</time>
      </trkpt>
      <trkpt lat="47.70536" lon="0.43528">
        <ele>93</ele>
        <time>2021-06-10T16:19:17Z</time>
      </trkpt>
      <trkpt lat="47.70581" lon="0.43536">
        <ele>95</ele>
        <time>2021-06-10T16:20:18Z</time>
      </trkpt>
      <trkpt lat="47.70591" lon="0.43569">
        <ele>96</ele>
        <time>2021-06-10T16:20:50Z</time>
      </trkpt>
      <trkpt lat="47.70609" lon="0.43594">
        <ele>97</ele>
        <time>2021-06-10T16:21:23Z</time>
      </trkpt>
      <trkpt lat="47.70632" lon="0.43596">
        <ele>98</ele>
        <time>2021-06-10T16:21:54Z</time>
      </trkpt>
      <trkpt lat="47.70654" lon="0.43604">
        <ele>98</ele>
        <time>2021-06-10T16:22:24Z</time>
      </trkpt>
      <trkpt lat="47.70675" lon="0.43619">
        <ele>99</ele>
        <time>2021-06-10T16:22:55Z</time>
      </trkpt>
      <trkpt lat="47.70691" lon="0.43642">
        <ele>101</ele>
        <time>2021-06-10T16:23:25Z</time>
      </trkpt>
      <trkpt lat="47.70737" lon="0.43672">
        <ele>102</ele>
        <time>2021-06-10T16:24:32Z</time>
      </trkpt>
      <trkpt lat="47.70755" lon="0.43692">
        <ele>102</ele>
        <time>2021-06-10T16:25:02Z</time>
      </trkpt>
      <trkpt lat="47.70795" lon="0.43726">
        <ele>103</ele>
        <time>2021-06-10T16:26:04Z</time>
      </trkpt>
      <trkpt lat="47.70807" lon="0.43755">
        <ele>104</ele>
        <time>2021-06-10T16:26:34Z</time>
      </trkpt>
      <trkpt lat="47.70815" lon="0.43787">
        <ele>106</ele>
        <time>2021-06-10T16:27:05Z</time>
      </trkpt>
      <trkpt lat="47.70869" lon="0.439">
        <ele>110</ele>
        <time>2021-06-10T16:29:09Z</time>
      </trkpt>
      <trkpt lat="47.70888" lon="0.43922">
        <ele>111</ele>
        <time>2021-06-10T16:29:41Z</time>
      </trkpt>
      <trkpt lat="47.70917" lon="0.43974">
        <ele>112</ele>
        <time>2021-06-10T16:30:42Z</time>
      </trkpt>
      <trkpt lat="47.70929" lon="0.44004">
        <ele>112</ele>
        <time>2021-06-10T16:31:13Z</time>
      </trkpt>
      <trkpt lat="47.70952" lon="0.44006">
        <ele>112</ele>
        <time>2021-06-10T16:31:44Z</time>
      </trkpt>
      <trkpt lat="47.70974" lon="0.43998">
        <ele>111</ele>
        <time>2021-06-10T16:32:14Z</time>
      </trkpt>
      <trkpt lat="47.70995" lon="0.43984">
        <ele>111</ele>
        <time>2021-06-10T16:32:45Z</time>
      </trkpt>
      <trkpt lat="47.71014" lon="0.43963">
        <ele>110</ele>
        <time>2021-06-10T16:33:17Z</time>
      </trkpt>
      <trkpt lat="47.71035" lon="0.4395">
        <ele>110</ele>
        <time>2021-06-10T16:33:47Z</time>
      </trkpt>
      <trkpt lat="47.71049" lon="0.43978">
        <ele>111</ele>
        <time>2021-06-10T16:34:18Z</time>
      </trkpt>
      <trkpt lat="47.7106" lon="0.44008">
        <ele>111</ele>
        <time>2021-06-10T16:34:49Z</time>
      </trkpt>
      <trkpt lat="47.71065" lon="0.44042">
        <ele>112</ele>
        <time>2021-06-10T16:35:20Z</time>
      </trkpt>
      <trkpt lat="47.71073" lon="0.44075">
        <ele>113</ele>
        <time>2021-06-10T16:35:52Z</time>
      </trkpt>
      <trkpt lat="47.71076" lon="0.44143">
        <ele>114</ele>
        <time>2021-06-10T16:36:53Z</time>
      </trkpt>
      <trkpt lat="47.71082" lon="0.44176">
        <ele>114</ele>
        <time>2021-06-10T16:37:24Z</time>
      </trkpt>
      <trkpt lat="47.71103" lon="0.44191">
        <ele>115</ele>
        <time>2021-06-10T16:37:55Z</time>
      </trkpt>
      <trkpt lat="47.71146" lon="0.44215">
        <ele>117</ele>
        <time>2021-06-10T16:38:56Z</time>
      </trkpt>
      <trkpt lat="47.71166" lon="0.44231">
        <ele>118</ele>
        <time>2021-06-10T16:39:26Z</time>
      </trkpt>
      <trkpt lat="47.71188" lon="0.44243">
        <ele>118</ele>
        <time>2021-06-10T16:39:58Z</time>
      </trkpt>
      <trkpt lat="47.71207" lon="0.44264">
        <ele>119</ele>
        <time>2021-06-10T16:40:29Z</time>
      </trkpt>
      <trkpt lat="47.71246" lon="0.44297">
        <ele>121</ele>
        <time>2021-06-10T16:41:29Z</time>
      </trkpt>
      <trkpt lat="47.71309" lon="0.44341">
        <ele>123</ele>
        <time>2021-06-10T16:43:02Z</time>
      </trkpt>
      <trkpt lat="47.71352" lon="0.44366">
        <ele>122</ele>
        <time>2021-06-10T16:44:04Z</time>
      </trkpt>
      <trkpt lat="47.71375" lon="0.44376">
        <ele>122</ele>
        <time>2021-06-10T16:44:36Z</time>
      </trkpt>
      <trkpt lat="47.71397" lon="0.44382">
        <ele>122</ele>
        <time>2021-06-10T16:45:05Z</time>
      </trkpt>
      <trkpt lat="47.71437" lon="0.44413">
        <ele>122</ele>
        <time>2021-06-10T16:46:06Z</time>
      </trkpt>
      <trkpt lat="47.71474" lon="0.44456">
        <ele>122</ele>
        <time>2021-06-10T16:47:08Z</time>
      </trkpt>
      <trkpt lat="47.71506" lon="0.44504">
        <ele>121</ele>
        <time>2021-06-10T16:48:09Z</time>
      </trkpt>
      <trkpt lat="47.71525" lon="0.44526">
        <ele>121</ele>
        <time>2021-06-10T16:48:41Z</time>
      </trkpt>
      <trkpt lat="47.71542" lon="0.44551">
        <ele>122</ele>
        <time>2021-06-10T16:49:13Z</time>
      </trkpt>
      <trkpt lat="47.71556" lon="0.44578">
        <ele>122</ele>
        <time>2021-06-10T16:49:44Z</time>
      </trkpt>
      <trkpt lat="47.71572" lon="0.44602">
        <ele>122</ele>
        <time>2021-06-10T16:50:14Z</time>
      </trkpt>
      <trkpt lat="47.71599" lon="0.44658">
        <ele>121</ele>
        <time>2021-06-10T16:51:16Z</time>
      </trkpt>
      <trkpt lat="47.71614" lon="0.44682">
        <ele>122</ele>
        <time>2021-06-10T16:51:45Z</time>
      </trkpt>
      <trkpt lat="47.7172" lon="0.44811">
        <ele>123</ele>
        <time>2021-06-10T16:54:48Z</time>
      </trkpt>
      <trkpt lat="47.71734" lon="0.44838">
        <ele>123</ele>
        <time>2021-06-10T16:55:19Z</time>
      </trkpt>
      <trkpt lat="47.71724" lon="0.44869">
        <ele>124</ele>
        <time>2021-06-10T16:55:49Z</time>
      </trkpt>
      <trkpt lat="47.71666" lon="0.44978">
        <ele>123</ele>
        <time>2021-06-10T16:57:54Z</time>
      </trkpt>
      <trkpt lat="47.71631" lon="0.45023">
        <ele>122</ele>
        <time>2021-06-10T16:58:56Z</time>
      </trkpt>
      <trkpt lat="47.71593" lon="0.45061">
        <ele>120</ele>
        <time>2021-06-10T16:59:57Z</time>
      </trkpt>
      <trkpt lat="47.71572" lon="0.45077">
        <ele>119</ele>
        <time>2021-06-10T17:00:29Z</time>
      </trkpt>
      <trkpt lat="47.71509" lon="0.45118">
        <ele>119</ele>
        <time>2021-06-10T17:02:00Z</time>
      </trkpt>
      <trkpt lat="47.71486" lon="0.4513">
        <ele>119</ele>
        <time>2021-06-10T17:02:33Z</time>
      </trkpt>
      <trkpt lat="47.71483" lon="0.45164">
        <ele>119</ele>
        <time>2021-06-10T17:03:04Z</time>
      </trkpt>
      <trkpt lat="47.71493" lon="0.45195">
        <ele>119</ele>
        <time>2021-06-10T17:03:35Z</time>
      </trkpt>
      <trkpt lat="47.7152" lon="0.45249">
        <ele>118</ele>
        <time>2021-06-10T17:04:35Z</time>
      </trkpt>
      <trkpt lat="47.71554" lon="0.45296">
        <ele>119</ele>
        <time>2021-06-10T17:05:37Z</time>
      </trkpt>
      <trkpt lat="47.71548" lon="0.45329">
        <ele>119</ele>
        <time>2021-06-10T17:06:08Z</time>
      </trkpt>
      <trkpt lat="47.71519" lon="0.45385">
        <ele>117</ele>
        <time>2021-06-10T17:07:11Z</time>
      </trkpt>
      <trkpt lat="47.71501" lon="0.45408">
        <ele>115</ele>
        <time>2021-06-10T17:07:43Z</time>
      </trkpt>
      <trkpt lat="47.71457" lon="0.45488">
        <ele>114</ele>
        <time>2021-06-10T17:09:16Z</time>
      </trkpt>
      <trkpt lat="47.7144" lon="0.45512">
        <ele>113</ele>
        <time>2021-06-10T17:09:47Z</time>
      </trkpt>
      <trkpt lat="47.71403" lon="0.4555">
        <ele>112</ele>
        <time>2021-06-10T17:10:47Z</time>
      </trkpt>
      <trkpt lat="47.7136" lon="0.4558">
        <ele>110</ele>
        <time>2021-06-10T17:11:50Z</time>
      </trkpt>
      <trkpt lat="47.71342" lon="0.45603">
        <ele>109</ele>
        <time>2021-06-10T17:12:22Z</time>
      </trkpt>
      <trkpt lat="47.71323" lon="0.45622">
        <ele>108</ele>
        <time>2021-06-10T17:12:52Z</time>
      </trkpt>
      <trkpt lat="47.71315" lon="0.45654">
        <ele>106</ele>
        <time>2021-06-10T17:13:23Z</time>
      </trkpt>
      <trkpt lat="47.71311" lon="0.45688">
        <ele>106</ele>
        <time>2021-06-10T17:13:54Z</time>
      </trkpt>
      <trkpt lat="47.71319" lon="0.45724">
        <ele>107</ele>
        <time>2021-06-10T17:14:28Z</time>
      </trkpt>
      <trkpt lat="47.71302" lon="0.45746">
        <ele>107</ele>
        <time>2021-06-10T17:14:58Z</time>
      </trkpt>
      <trkpt lat="47.71292" lon="0.45777">
        <ele>107</ele>
        <time>2021-06-10T17:15:29Z</time>
      </trkpt>
      <trkpt lat="47.713" lon="0.4581">
        <ele>106</ele>
        <time>2021-06-10T17:16:01Z</time>
      </trkpt>
      <trkpt lat="47.71314" lon="0.45837">
        <ele>104</ele>
        <time>2021-06-10T17:16:31Z</time>
      </trkpt>
      <trkpt lat="47.71325" lon="0.45867">
        <ele>102</ele>
        <time>2021-06-10T17:17:02Z</time>
      </trkpt>
      <trkpt lat="47.71329" lon="0.45902">
        <ele>100</ele>
        <time>2021-06-10T17:17:34Z</time>
      </trkpt>
      <trkpt lat="47.71342" lon="0.4593">
        <ele>100</ele>
        <time>2021-06-10T17:18:04Z</time>
      </trkpt>
      <trkpt lat="47.71357" lon="0.45955">
        <ele>102</ele>
        <time>2021-06-10T17:18:34Z</time>
      </trkpt>
      <trkpt lat="47.71368" lon="0.45985">
        <ele>102</ele>
        <time>2021-06-10T17:19:05Z</time>
      </trkpt>
      <trkpt lat="47.71372" lon="0.46019">
        <ele>101</ele>
        <time>2021-06-10T17:19:36Z</time>
      </trkpt>
      <trkpt lat="47.71395" lon="0.46077">
        <ele>96</ele>
        <time>2021-06-10T17:20:36Z</time>
      </trkpt>
      <trkpt lat="47.71414" lon="0.46141">
        <ele>92</ele>
        <time>2021-06-10T17:21:39Z</time>
      </trkpt>
      <trkpt lat="47.71418" lon="0.46174">
        <ele>91</ele>
        <time>2021-06-10T17:22:09Z</time>
      </trkpt>
      <trkpt lat="47.71417" lon="0.46208">
        <ele>89</ele>
        <time>2021-06-10T17:22:40Z</time>
      </trkpt>
      <trkpt lat="47.71427" lon="0.4631">
        <ele>86</ele>
        <time>2021-06-10T17:24:13Z</time>
      </trkpt>
      <trkpt lat="47.71445" lon="0.46373">
        <ele>79</ele>
        <time>2021-06-10T17:25:14Z</time>
      </trkpt>
      <trkpt lat="47.71481" lon="0.46465">
        <ele>66</ele>
        <time>2021-06-10T17:26:50Z</time>
      </trkpt>
      <trkpt lat="47.71482" lon="0.465">
        <ele>63</ele>
        <time>2021-06-10T17:27:21Z</time>
      </trkpt>
      <trkpt lat="47.71492" lon="0.46531">
        <ele>61</ele>
        <time>2021-06-10T17:27:52Z</time>
      </trkpt>
      <trkpt lat="47.71518" lon="0.46587">
        <ele>59</ele>
        <time>2021-06-10T17:28:53Z</time>
      </trkpt>
      <trkpt lat="47.71535" lon="0.46608">
        <ele>59</ele>
        <time>2021-06-10T17:29:22Z</time>
      </trkpt>
      <trkpt lat="47.7157" lon="0.46699">
        <ele>65</ele>
        <time>2021-06-10T17:30:57Z</time>
      </trkpt>
      <trkpt lat="47.7157" lon="0.46734">
        <ele>69</ele>
        <time>2021-06-10T17:31:28Z</time>
      </trkpt>
      <trkpt lat="47.71556" lon="0.46763">
        <ele>69</ele>
        <time>2021-06-10T17:32:00Z</time>
      </trkpt>
      <trkpt lat="47.71525" lon="0.46813">
        <ele>67</ele>
        <time>2021-06-10T17:33:01Z</time>
      </trkpt>
      <trkpt lat="47.71496" lon="0.46866">
        <ele>67</ele>
        <time>2021-06-10T17:34:02Z</time>
      </trkpt>
      <trkpt lat="47.71478" lon="0.46888">
        <ele>69</ele>
        <time>2021-06-10T17:34:34Z</time>
      </trkpt>
      <trkpt lat="47.71471" lon="0.4692">
        <ele>72</ele>
        <time>2021-06-10T17:35:04Z</time>
      </trkpt>
      <trkpt lat="47.71481" lon="0.46951">
        <ele>74</ele>
        <time>2021-06-10T17:35:35Z</time>
      </trkpt>
      <trkpt lat="47.71495" lon="0.4698">
        <ele>75</ele>
        <time>2021-06-10T17:36:07Z</time>
      </trkpt>
      <trkpt lat="47.71502" lon="0.47013">
        <ele>76</ele>
        <time>2021-06-10T17:36:38Z</time>
      </trkpt>
      <trkpt lat="47.71518" lon="0.47037">
        <ele>81</ele>
        <time>2021-06-10T17:37:08Z</time>
      </trkpt>
      <trkpt lat="47.71545" lon="0.47094">
        <ele>87</ele>
        <time>2021-06-10T17:38:11Z</time>
      </trkpt>
      <trkpt lat="47.71561" lon="0.47119">
        <ele>91</ele>
        <time>2021-06-10T17:38:42Z</time>
      </trkpt>
      <trkpt lat="47.71563" lon="0.47154">
        <ele>93</ele>
        <time>2021-06-10T17:39:13Z</time>
      </trkpt>
      <trkpt lat="47.71578" lon="0.4718">
        <ele>96</ele>
        <time>2021-06-10T17:39:44Z</time>
      </trkpt>
      <trkpt lat="47.7159" lon="0.47209">
        <ele>100</ele>
        <time>2021-06-10T17:40:14Z</time>
      </trkpt>
      <trkpt lat="47.71612" lon="0.47205">
        <ele>101</ele>
        <time>2021-06-10T17:40:44Z</time>
      </trkpt>
      <trkpt lat="47.7164" lon="0.47216">
        <ele>104</ele>
        <time>2021-06-10T17:41:23Z</time>
      </trkpt>
      <trkpt lat="47.71675" lon="0.47262">
        <ele>107</ele>
        <time>2021-06-10T17:42:25Z</time>
      </trkpt>
      <trkpt lat="47.71716" lon="0.4729">
        <ele>111</ele>
        <time>2021-06-10T17:43:25Z</time>
      </trkpt>
      <trkpt lat="47.71734" lon="0.47312">
        <ele>113</ele>
        <time>2021-06-10T17:43:56Z</time>
      </trkpt>
      <trkpt lat="47.71727" lon="0.47345">
        <ele>114</ele>
        <time>2021-06-10T17:44:27Z</time>
      </trkpt>
      <trkpt lat="47.71704" lon="0.47346">
        <ele>114</ele>
        <time>2021-06-10T17:44:58Z</time>
      </trkpt>
      <trkpt lat="47.71658" lon="0.47353">
        <ele>114</ele>
        <time>2021-06-10T17:46:00Z</time>
      </trkpt>
      <trkpt lat="47.71636" lon="0.47361">
        <ele>114</ele>
        <time>2021-06-10T17:46:30Z</time>
      </trkpt>
      <trkpt lat="47.71616" lon="0.4738">
        <ele>114</ele>
        <time>2021-06-10T17:47:02Z</time>
      </trkpt>
      <trkpt lat="47.71594" lon="0.4739">
        <ele>114</ele>
        <time>2021-06-10T17:47:32Z</time>
      </trkpt>
      <trkpt lat="47.71548" lon="0.47386">
        <ele>113</ele>
        <time>2021-06-10T17:48:34Z</time>
      </trkpt>
      <trkpt lat="47.71524" lon="0.47387">
        <ele>113</ele>
        <time>2021-06-10T17:49:06Z</time>
      </trkpt>
      <trkpt lat="47.71502" lon="0.47378">
        <ele>112</ele>
        <time>2021-06-10T17:49:36Z</time>
      </trkpt>
      <trkpt lat="47.71484" lon="0.47359">
        <ele>111</ele>
        <time>2021-06-10T17:50:06Z</time>
      </trkpt>
      <trkpt lat="47.71418" lon="0.47323">
        <ele>109</ele>
        <time>2021-06-10T17:51:40Z</time>
      </trkpt>
      <trkpt lat="47.71397" lon="0.47303">
        <ele>108</ele>
        <time>2021-06-10T17:52:13Z</time>
      </trkpt>
      <trkpt lat="47.71352" lon="0.47293">
        <ele>107</ele>
        <time>2021-06-10T17:53:14Z</time>
      </trkpt>
      <trkpt lat="47.71329" lon="0.47298">
        <ele>108</ele>
        <time>2021-06-10T17:53:45Z</time>
      </trkpt>
      <trkpt lat="47.71267" lon="0.47343">
        <ele>112</ele>
        <time>2021-06-10T17:55:17Z</time>
      </trkpt>
      <trkpt lat="47.71245" lon="0.47354">
        <ele>112</ele>
        <time>2021-06-10T17:55:48Z</time>
      </trkpt>
      <trkpt lat="47.71223" lon="0.47359">
        <ele>111</ele>
        <time>2021-06-10T17:56:17Z</time>
      </trkpt>
      <trkpt lat="47.71204" lon="0.4738">
        <ele>111</ele>
        <time>2021-06-10T17:56:49Z</time>
      </trkpt>
      <trkpt lat="47.71182" lon="0.47389">
        <ele>110</ele>
        <time>2021-06-10T17:57:19Z</time>
      </trkpt>
      <trkpt lat="47.71164" lon="0.4741">
        <ele>110</ele>
        <time>2021-06-10T17:57:50Z</time>
      </trkpt>
      <trkpt lat="47.7114" lon="0.47427">
        <ele>110</ele>
        <time>2021-06-10T17:58:26Z</time>
      </trkpt>
      <trkpt lat="47.71097" lon="0.47451">
        <ele>110</ele>
        <time>2021-06-10T17:59:27Z</time>
      </trkpt>
      <trkpt lat="47.71075" lon="0.47458">
        <ele>110</ele>
        <time>2021-06-10T17:59:57Z</time>
      </trkpt>
      <trkpt lat="47.71054" lon="0.47473">
        <ele>110</ele>
        <time>2021-06-10T18:00:28Z</time>
      </trkpt>
      <trkpt lat="47.71033" lon="0.47483">
        <ele>110</ele>
        <time>2021-06-10T18:00:57Z</time>
      </trkpt>
      <trkpt lat="47.71028" lon="0.47449">
        <ele>110</ele>
        <time>2021-06-10T18:01:29Z</time>
      </trkpt>
      <trkpt lat="47.71029" lon="0.47484">
        <ele>110</ele>
        <time>2021-06-10T18:02:00Z</time>
      </trkpt>
      <trkpt lat="47.71041" lon="0.47455">
        <ele>110</ele>
        <time>2021-06-10T18:02:31Z</time>
      </trkpt>
      <trkpt lat="47.71068" lon="0.47454">
        <ele>110</ele>
        <time>2021-06-10T18:03:07Z</time>
      </trkpt>
      <trkpt lat="47.71113" lon="0.47438">
        <ele>110</ele>
        <time>2021-06-10T18:04:08Z</time>
      </trkpt>
      <trkpt lat="47.71137" lon="0.47435">
        <ele>110</ele>
        <time>2021-06-10T18:04:41Z</time>
      </trkpt>
      <trkpt lat="47.71155" lon="0.47415">
        <ele>110</ele>
        <time>2021-06-10T18:05:11Z</time>
      </trkpt>
      <trkpt lat="47.71178" lon="0.47405">
        <ele>110</ele>
        <time>2021-06-10T18:05:43Z</time>
      </trkpt>
      <trkpt lat="47.71198" lon="0.47385">
        <ele>110</ele>
        <time>2021-06-10T18:06:15Z</time>
      </trkpt>
      <trkpt lat="47.71239" lon="0.47357">
        <ele>112</ele>
        <time>2021-06-10T18:07:15Z</time>
      </trkpt>
      <trkpt lat="47.7126" lon="0.47344">
        <ele>112</ele>
        <time>2021-06-10T18:07:45Z</time>
      </trkpt>
      <trkpt lat="47.71304" lon="0.47324">
        <ele>111</ele>
        <time>2021-06-10T18:08:47Z</time>
      </trkpt>
      <trkpt lat="47.7131" lon="0.47292">
        <ele>109</ele>
        <time>2021-06-10T18:09:16Z</time>
      </trkpt>
      <trkpt lat="47.71283" lon="0.47236">
        <ele>107</ele>
        <time>2021-06-10T18:10:18Z</time>
      </trkpt>
      <trkpt lat="47.71263" lon="0.47218">
        <ele>105</ele>
        <time>2021-06-10T18:10:50Z</time>
      </trkpt>
      <trkpt lat="47.71245" lon="0.47196">
        <ele>102</ele>
        <time>2021-06-10T18:11:21Z</time>
      </trkpt>
      <trkpt lat="47.71222" lon="0.47186">
        <ele>99</ele>
        <time>2021-06-10T18:11:53Z</time>
      </trkpt>
      <trkpt lat="47.71205" lon="0.47163">
        <ele>95</ele>
        <time>2021-06-10T18:12:23Z</time>
      </trkpt>
      <trkpt lat="47.7116" lon="0.47167">
        <ele>93</ele>
        <time>2021-06-10T18:13:23Z</time>
      </trkpt>
      <trkpt lat="47.71137" lon="0.47162">
        <ele>90</ele>
        <time>2021-06-10T18:13:54Z</time>
      </trkpt>
      <trkpt lat="47.71115" lon="0.47146">
        <ele>84</ele>
        <time>2021-06-10T18:14:27Z</time>
      </trkpt>
      <trkpt lat="47.71071" lon="0.47169">
        <ele>86</ele>
        <time>2021-06-10T18:15:29Z</time>
      </trkpt>
      <trkpt lat="47.7105" lon="0.47152">
        <ele>78</ele>
        <time>2021-06-10T18:16:01Z</time>
      </trkpt>
      <trkpt lat="47.71029" lon="0.47139">
        <ele>72</ele>
        <time>2021-06-10T18:16:32Z</time>
      </trkpt>
      <trkpt lat="47.71006" lon="0.47144">
        <ele>70</ele>
        <time>2021-06-10T18:17:03Z</time>
      </trkpt>
      <trkpt lat="47.70981" lon="0.47153">
        <ele>69</ele>
        <time>2021-06-10T18:17:37Z</time>
      </trkpt>
      <trkpt lat="47.70962" lon="0.47169">
        <ele>68</ele>
        <time>2021-06-10T18:18:06Z</time>
      </trkpt>
      <trkpt lat="47.70978" lon="0.47145">
        <ele>67</ele>
        <time>2021-06-10T18:18:37Z</time>
      </trkpt>
      <trkpt lat="47.70986" lon="0.47111">
        <ele>62</ele>
        <time>2021-06-10T18:19:09Z</time>
      </trkpt>
      <trkpt lat="47.70976" lon="0.47043">
        <ele>56</ele>
        <time>2021-06-10T18:20:11Z</time>
      </trkpt>
      <trkpt lat="47.70957" lon="0.47026">
        <ele>55</ele>
        <time>2021-06-10T18:20:41Z</time>
      </trkpt>
      <trkpt lat="47.70942" lon="0.47001">
        <ele>55</ele>
        <time>2021-06-10T18:21:11Z</time>
      </trkpt>
      <trkpt lat="47.7093" lon="0.46933">
        <ele>57</ele>
        <time>2021-06-10T18:22:14Z</time>
      </trkpt>
      <trkpt lat="47.7092" lon="0.46903">
        <ele>59</ele>
        <time>2021-06-10T18:22:44Z</time>
      </trkpt>
      <trkpt lat="47.70915" lon="0.4687">
        <ele>60</ele>
        <time>2021-06-10T18:23:15Z</time>
      </trkpt>
      <trkpt lat="47.70897" lon="0.46798">
        <ele>63</ele>
        <time>2021-06-10T18:24:24Z</time>
      </trkpt>
      <trkpt lat="47.70892" lon="0.46763">
        <ele>64</ele>
        <time>2021-06-10T18:24:56Z</time>
      </trkpt>
      <trkpt lat="47.70884" lon="0.46731">
        <ele>67</ele>
        <time>2021-06-10T18:25:26Z</time>
      </trkpt>
      <trkpt lat="47.70864" lon="0.46714">
        <ele>71</ele>
        <time>2021-06-10T18:25:57Z</time>
      </trkpt>
      <trkpt lat="47.70797" lon="0.46741">
        <ele>72</ele>
        <time>2021-06-10T18:27:30Z</time>
      </trkpt>
      <trkpt lat="47.70732" lon="0.46773">
        <ele>71</ele>
        <time>2021-06-10T18:29:01Z</time>
      </trkpt>
      <trkpt lat="47.70711" lon="0.46788">
        <ele>72</ele>
        <time>2021-06-10T18:29:32Z</time>
      </trkpt>
      <trkpt lat="47.70676" lon="0.46831">
        <ele>70</ele>
        <time>2021-06-10T18:30:33Z</time>
      </trkpt>
      <trkpt lat="47.70635" lon="0.46863">
        <ele>70</ele>
        <time>2021-06-10T18:31:35Z</time>
      </trkpt>
      <trkpt lat="47.7059" lon="0.46876">
        <ele>70</ele>
        <time>2021-06-10T18:32:36Z</time>
      </trkpt>
      <trkpt lat="47.70581" lon="0.46907">
        <ele>67</ele>
        <time>2021-06-10T18:33:06Z</time>
      </trkpt>
      <trkpt lat="47.70588" lon="0.4694">
        <ele>64</ele>
        <time>2021-06-10T18:33:37Z</time>
      </trkpt>
      <trkpt lat="47.706" lon="0.46968">
        <ele>63</ele>
        <time>2021-06-10T18:34:07Z</time>
      </trkpt>
      <trkpt lat="47.70604" lon="0.47009">
        <ele>62</ele>
        <time>2021-06-10T18:34:44Z</time>
      </trkpt>
      <trkpt lat="47.70588" lon="0.47035">
        <ele>61</ele>
        <time>2021-06-10T18:35:16Z</time>
      </trkpt>
      <trkpt lat="47.70568" lon="0.47097">
        <ele>59</ele>
        <time>2021-06-10T18:36:18Z</time>
      </trkpt>
      <trkpt lat="47.70549" lon="0.47118">
        <ele>58</ele>
        <time>2021-06-10T18:36:49Z</time>
      </trkpt>
      <trkpt lat="47.70528" lon="0.47109">
        <ele>58</ele>
        <time>2021-06-10T18:37:18Z</time>
      </trkpt>
      <trkpt lat="47.70464" lon="0.47067">
        <ele>61</ele>
        <time>2021-06-10T18:38:52Z</time>
      </trkpt>
      <trkpt lat="47.70419" lon="0.47044">
        <ele>63</ele>
        <time>2021-06-10T18:39:55Z</time>
      </trkpt>
      <trkpt lat="47.70398" lon="0.4703">
        <ele>63</ele>
        <time>2021-06-10T18:40:26Z</time>
      </trkpt>
      <trkpt lat="47.70375" lon="0.47021">
        <ele>62</ele>
        <time>2021-06-10T18:40:58Z</time>
      </trkpt>
      <trkpt lat="47.70329" lon="0.47009">
        <ele>59</ele>
        <time>2021-06-10T18:42:00Z</time>
      </trkpt>
      <trkpt lat="47.70307" lon="0.46998">
        <ele>59</ele>
        <time>2021-06-10T18:42:31Z</time>
      </trkpt>
      <trkpt lat="47.70287" lon="0.46981">
        <ele>59</ele>
        <time>2021-06-10T18:43:02Z</time>
      </trkpt>
      <trkpt lat="47.70242" lon="0.46961">
        <ele>57</ele>
        <time>2021-06-10T18:44:04Z</time>
      </trkpt>
      <trkpt lat="47.70221" lon="0.46948">
        <ele>57</ele>
        <time>2021-06-10T18:44:35Z</time>
      </trkpt>
      <trkpt lat="47.70202" lon="0.46931">
        <ele>57</ele>
        <time>2021-06-10T18:45:04Z</time>
      </trkpt>
      <trkpt lat="47.7016" lon="0.46901">
        <ele>57</ele>
        <time>2021-06-10T18:46:07Z</time>
      </trkpt>
      <trkpt lat="47.70105" lon="0.46836">
        <ele>55</ele>
        <time>2021-06-10T18:47:40Z</time>
      </trkpt>
      <trkpt lat="47.70095" lon="0.46805">
        <ele>58</ele>
        <time>2021-06-10T18:48:11Z</time>
      </trkpt>
      <trkpt lat="47.70089" lon="0.46772">
        <ele>61</ele>
        <time>2021-06-10T18:48:42Z</time>
      </trkpt>
      <trkpt lat="47.70078" lon="0.46742">
        <ele>63</ele>
        <time>2021-06-10T18:49:13Z</time>
      </trkpt>
      <trkpt lat="47.70077" lon="0.46708">
        <ele>70</ele>
        <time>2021-06-10T18:49:43Z</time>
      </trkpt>
      <trkpt lat="47.7006" lon="0.46686">
        <ele>71</ele>
        <time>2021-06-10T18:50:13Z</time>
      </trkpt>
      <trkpt lat="47.70048" lon="0.46658">
        <ele>74</ele>
        <time>2021-06-10T18:50:43Z</time>
      </trkpt>
      <trkpt lat="47.70027" lon="0.46641">
        <ele>75</ele>
        <time>2021-06-10T18:51:15Z</time>
      </trkpt>
      <trkpt lat="47.70015" lon="0.46612">
        <ele>82</ele>
        <time>2021-06-10T18:51:45Z</time>
      </trkpt>
      <trkpt lat="47.70013" lon="0.46578">
        <ele>90</ele>
        <time>2021-06-10T18:52:16Z</time>
      </trkpt>
      <trkpt lat="47.70002" lon="0.46547">
        <ele>95</ele>
        <time>2021-06-10T18:52:48Z</time>
      </trkpt>
      <trkpt lat="47.69983" lon="0.46526">
        <ele>96</ele>
        <time>2021-06-10T18:53:19Z</time>
      </trkpt>
      <trkpt lat="47.69963" lon="0.46464">
        <ele>102</ele>
        <time>2021-06-10T18:54:21Z</time>
      </trkpt>
      <trkpt lat="47.69964" lon="0.46395">
        <ele>107</ele>
        <time>2021-06-10T18:55:23Z</time>
      </trkpt>
      <trkpt lat="47.69942" lon="0.46387">
        <ele>106</ele>
        <time>2021-06-10T18:55:53Z</time>
      </trkpt>
      <trkpt lat="47.69962" lon="0.46367">
        <ele>106</ele>
        <time>2021-06-10T18:56:25Z</time>
      </trkpt>
      <trkpt lat="47.69939" lon="0.4637">
        <ele>106</ele>
        <time>2021-06-10T18:56:56Z</time>
      </trkpt>
      <trkpt lat="47.69916" lon="0.46367">
        <ele>105</ele>
        <time>2021-06-10T18:57:27Z</time>
      </trkpt>
      <trkpt lat="47.6987" lon="0.46348">
        <ele>103</ele>
        <time>2021-06-10T18:58:31Z</time>
      </trkpt>
      <trkpt lat="47.69846" lon="0.46348">
        <ele>101</ele>
        <time>2021-06-10T18:59:03Z</time>
      </trkpt>
      <trkpt lat="47.69824" lon="0.46342">
        <ele>99</ele>
        <time>2021-06-10T18:59:33Z</time>
      </trkpt>
      <trkpt lat="47.69802" lon="0.46329">
        <ele>96</ele>
        <time>2021-06-10T19:00:04Z</time>
      </trkpt>
      <trkpt lat="47.69783" lon="0.46311">
        <ele>94</ele>
        <time>2021-06-10T19:00:34Z</time>
      </trkpt>
      <trkpt lat="47.69761" lon="0.46308">
        <ele>90</ele>
        <time>2021-06-10T19:01:04Z</time>
      </trkpt>
      <trkpt lat="47.69739" lon="0.46301">
        <ele>86</ele>
        <time>2021-06-10T19:01:34Z</time>
      </trkpt>
      <trkpt lat="47.69718" lon="0.46288">
        <ele>83</ele>
        <time>2021-06-10T19:02:04Z</time>
      </trkpt>
      <trkpt lat="47.69695" lon="0.4629">
        <ele>77</ele>
        <time>2021-06-10T19:02:35Z</time>
      </trkpt>
      <trkpt lat="47.69679" lon="0.46266">
        <ele>77</ele>
        <time>2021-06-10T19:03:05Z</time>
      </trkpt>
      <trkpt lat="47.69657" lon="0.46283">
        <ele>69</ele>
        <time>2021-06-10T19:03:38Z</time>
      </trkpt>
      <trkpt lat="47.69641" lon="0.46291">
        <ele>66</ele>
        <time>2021-06-10T19:04:01Z</time>
      </trkpt>
      <trkpt lat="47.69631" lon="0.46305">
        <ele>62</ele>
        <time>2021-06-10T19:04:19Z</time>
      </trkpt>
      <trkpt lat="47.69609" lon="0.46278">
        <ele>63</ele>
        <time>2021-06-10T19:04:57Z</time>
      </trkpt>
      <trkpt lat="47.69594" lon="0.46213">
        <ele>72</ele>
        <time>2021-06-10T19:05:59Z</time>
      </trkpt>
      <trkpt lat="47.69578" lon="0.46188">
        <ele>74</ele>
        <time>2021-06-10T19:06:30Z</time>
      </trkpt>
      <trkpt lat="47.69569" lon="0.46158">
        <ele>79</ele>
        <time>2021-06-10T19:06:59Z</time>
      </trkpt>
      <trkpt lat="47.69558" lon="0.46137">
        <ele>81</ele>
        <time>2021-06-10T19:07:23Z</time>
      </trkpt>
      <trkpt lat="47.69539" lon="0.4612">
        <ele>81</ele>
        <time>2021-06-10T19:07:53Z</time>
      </trkpt>
      <trkpt lat="47.69482" lon="0.46026">
        <ele>94</ele>
        <time>2021-06-10T19:09:47Z</time>
      </trkpt>
      <trkpt lat="47.6948" lon="0.46011">
        <ele>97</ele>
        <time>2021-06-10T19:10:00Z</time>
      </trkpt>
      <trkpt lat="47.69467" lon="0.46">
        <ele>99</ele>
        <time>2021-06-10T19:10:20Z</time>
      </trkpt>
      <trkpt lat="47.6945" lon="0.45978">
        <ele>99</ele>
        <time>2021-06-10T19:10:50Z</time>
      </trkpt>
      <trkpt lat="47.69409" lon="0.45943">
        <ele>100</ele>
        <time>2021-06-10T19:11:53Z</time>
      </trkpt>
      <trkpt lat="47.69388" lon="0.45928">
        <ele>101</ele>
        <time>2021-06-10T19:12:25Z</time>
      </trkpt>
      <trkpt lat="47.69367" lon="0.45915">
        <ele>102</ele>
        <time>2021-06-10T19:12:55Z</time>
      </trkpt>
      <trkpt lat="47.69344" lon="0.45909">
        <ele>102</ele>
        <time>2021-06-10T19:13:26Z</time>
      </trkpt>
      <trkpt lat="47.69323" lon="0.45896">
        <ele>102</ele>
        <time>2021-06-10T19:13:56Z</time>
      </trkpt>
      <trkpt lat="47.69255" lon="0.45875">
        <ele>100</ele>
        <time>2021-06-10T19:15:29Z</time>
      </trkpt>
      <trkpt lat="47.69218" lon="0.45835">
        <ele>99</ele>
        <time>2021-06-10T19:16:30Z</time>
      </trkpt>
      <trkpt lat="47.69176" lon="0.45801">
        <ele>97</ele>
        <time>2021-06-10T19:17:34Z</time>
      </trkpt>
      <trkpt lat="47.69151" lon="0.45742">
        <ele>98</ele>
        <time>2021-06-10T19:18:37Z</time>
      </trkpt>
      <trkpt lat="47.69135" lon="0.45718">
        <ele>96</ele>
        <time>2021-06-10T19:19:07Z</time>
      </trkpt>
      <trkpt lat="47.69093" lon="0.45637">
        <ele>93</ele>
        <time>2021-06-10T19:20:39Z</time>
      </trkpt>
      <trkpt lat="47.69073" lon="0.45577">
        <ele>94</ele>
        <time>2021-06-10T19:21:39Z</time>
      </trkpt>
      <trkpt lat="47.69067" lon="0.45542">
        <ele>93</ele>
        <time>2021-06-10T19:22:11Z</time>
      </trkpt>
      <trkpt lat="47.69072" lon="0.45509">
        <ele>96</ele>
        <time>2021-06-10T19:22:42Z</time>
      </trkpt>
      <trkpt lat="47.69063" lon="0.45477">
        <ele>94</ele>
        <time>2021-06-10T19:23:13Z</time>
      </trkpt>
      <trkpt lat="47.69051" lon="0.45449">
        <ele>92</ele>
        <time>2021-06-10T19:23:43Z</time>
      </trkpt>
      <trkpt lat="47.69042" lon="0.45415">
        <ele>92</ele>
        <time>2021-06-10T19:24:16Z</time>
      </trkpt>
      <trkpt lat="47.69027" lon="0.45389">
        <ele>91</ele>
        <time>2021-06-10T19:24:46Z</time>
      </trkpt>
      <trkpt lat="47.69005" lon="0.4538">
        <ele>89</ele>
        <time>2021-06-10T19:25:17Z</time>
      </trkpt>
      <trkpt lat="47.6899" lon="0.45353">
        <ele>86</ele>
        <time>2021-06-10T19:25:48Z</time>
      </trkpt>
      <trkpt lat="47.68981" lon="0.45318">
        <ele>84</ele>
        <time>2021-06-10T19:26:22Z</time>
      </trkpt>
      <trkpt lat="47.6895" lon="0.45227">
        <ele>82</ele>
        <time>2021-06-10T19:27:53Z</time>
      </trkpt>
      <trkpt lat="47.68935" lon="0.452">
        <ele>82</ele>
        <time>2021-06-10T19:28:25Z</time>
      </trkpt>
      <trkpt lat="47.68924" lon="0.45171">
        <ele>83</ele>
        <time>2021-06-10T19:28:55Z</time>
      </trkpt>
      <trkpt lat="47.68897" lon="0.45114">
        <ele>76</ele>
        <time>2021-06-10T19:29:57Z</time>
      </trkpt>
      <trkpt lat="47.68887" lon="0.45084">
        <ele>74</ele>
        <time>2021-06-10T19:30:28Z</time>
      </trkpt>
      <trkpt lat="47.68858" lon="0.45032">
        <ele>68</ele>
        <time>2021-06-10T19:31:28Z</time>
      </trkpt>
      <trkpt lat="47.68837" lon="0.44971">
        <ele>66</ele>
        <time>2021-06-10T19:32:30Z</time>
      </trkpt>
      <trkpt lat="47.68823" lon="0.44943">
        <ele>64</ele>
        <time>2021-06-10T19:33:01Z</time>
      </trkpt>
      <trkpt lat="47.68804" lon="0.44916">
        <ele>61</ele>
        <time>2021-06-10T19:33:36Z</time>
      </trkpt>
      <trkpt lat="47.68801" lon="0.44883">
        <ele>61</ele>
        <time>2021-06-10T19:34:06Z</time>
      </trkpt>
      <trkpt lat="47.68791" lon="0.44853">
        <ele>60</ele>
        <time>2021-06-10T19:34:36Z</time>
      </trkpt>
      <trkpt lat="47.68761" lon="0.44799">
        <ele>57</ele>
        <time>2021-06-10T19:35:39Z</time>
      </trkpt>
      <trkpt lat="47.6874" lon="0.44783">
        <ele>55</ele>
        <time>2021-06-10T19:36:11Z</time>
      </trkpt>
      <trkpt lat="47.68722" lon="0.44781">
        <ele>53</ele>
        <time>2021-06-10T19:36:35Z</time>
      </trkpt>
      <trkpt lat="47.68708" lon="0.44749">
        <ele>53</ele>
        <time>2021-06-10T19:37:09Z</time>
      </trkpt>
      <trkpt lat="47.6866" lon="0.44595">
        <ele>56</ele>
        <time>2021-06-10T19:39:41Z</time>
      </trkpt>
      <trkpt lat="47.6864" lon="0.44495">
        <ele>56</ele>
        <time>2021-06-10T19:41:15Z</time>
      </trkpt>
      <trkpt lat="47.68653" lon="0.44434">
        <ele>62</ele>
        <time>2021-06-10T19:42:13Z</time>
      </trkpt>
      <trkpt lat="47.68662" lon="0.44378">
        <ele>63</ele>
        <time>2021-06-10T19:43:04Z</time>
      </trkpt>
      <trkpt lat="47.68672" lon="0.44352">
        <ele>63</ele>
        <time>2021-06-10T19:43:31Z</time>
      </trkpt>
      <trkpt lat="47.68685" lon="0.44336">
        <ele>64</ele>
        <time>2021-06-10T19:43:54Z</time>
      </trkpt>
      <trkpt lat="47.68676" lon="0.44265">
        <ele>63</ele>
        <time>2021-06-10T19:44:59Z</time>
      </trkpt>
      <trkpt lat="47.68677" lon="0.4424">
        <ele>64</ele>
        <time>2021-06-10T19:45:21Z</time>
      </trkpt>
      <trkpt lat="47.68683" lon="0.44214">
        <ele>65</ele>
        <time>2021-06-10T19:45:46Z</time>
      </trkpt>
      <trkpt lat="47.68722" lon="0.44137">
        <ele>67</ele>
        <time>2021-06-10T19:47:12Z</time>
      </trkpt>
      <trkpt lat="47.68733" lon="0.44099">
        <ele>66</ele>
        <time>2021-06-10T19:47:50Z</time>
      </trkpt>
      <trkpt lat="47.68732" lon="0.44051">
        <ele>66</ele>
        <time>2021-06-10T19:48:33Z</time>
      </trkpt>
      <trkpt lat="47.68723" lon="0.44005">
        <ele>65</ele>
        <time>2021-06-10T19:49:16Z</time>
      </trkpt>
      <trkpt lat="47.68706" lon="0.43961">
        <ele>63</ele>
        <time>2021-06-10T19:50:01Z</time>
      </trkpt>
      <trkpt lat="47.68695" lon="0.43918">
        <ele>62</ele>
        <time>2021-06-10T19:50:43Z</time>
      </trkpt>
      <trkpt lat="47.68653" lon="0.43849">
        <ele>59</ele>
        <time>2021-06-10T19:52:06Z</time>
      </trkpt>
      <trkpt lat="47.68641" lon="0.43823">
        <ele>59</ele>
        <time>2021-06-10T19:52:34Z</time>
      </trkpt>
      <trkpt lat="47.68608" lon="0.43823">
        <ele>58</ele>
        <time>2021-06-10T19:53:18Z</time>
      </trkpt>
      <trkpt lat="47.68572" lon="0.43832">
        <ele>56</ele>
        <time>2021-06-10T19:54:07Z</time>
      </trkpt>
      <trkpt lat="47.68542" lon="0.43845">
        <ele>54</ele>
        <time>2021-06-10T19:54:49Z</time>
      </trkpt>
      <trkpt lat="47.68514" lon="0.43871">
        <ele>52</ele>
        <time>2021-06-10T19:55:33Z</time>
      </trkpt>
      <trkpt lat="47.68464" lon="0.43907">
        <ele>49</ele>
        <time>2021-06-10T19:56:47Z</time>
      </trkpt>
      <trkpt lat="47.68445" lon="0.43929">
        <ele>49</ele>
        <time>2021-06-10T19:57:19Z</time>
      </trkpt>
      <trkpt lat="47.68422" lon="0.43969">
        <ele>48</ele>
        <time>2021-06-10T19:58:07Z</time>
      </trkpt>
      <trkpt lat="47.68415" lon="0.43971">
        <ele>47</ele>
        <time>2021-06-10T19:58:16Z</time>
      </trkpt>
      <trkpt lat="47.68384" lon="0.43907">
        <ele>47</ele>
        <time>2021-06-10T19:59:27Z</time>
      </trkpt>
      <trkpt lat="47.68353" lon="0.43819">
        <ele>47</ele>
        <time>2021-06-10T20:00:56Z</time>
      </trkpt>
      <trkpt lat="47.68318" lon="0.43688">
        <ele>47</ele>
        <time>2021-06-10T20:03:03Z</time>
      </trkpt>
      <trkpt lat="47.68289" lon="0.43593">
        <ele>47</ele>
        <time>2021-06-10T20:04:36Z</time>
      </trkpt>
      <trkpt lat="47.68258" lon="0.43502">
        <ele>46</ele>
        <time>2021-06-10T20:06:08Z</time>
      </trkpt>
      <trkpt lat="47.68241" lon="0.4344">
        <ele>46</ele>
        <time>2021-06-10T20:07:08Z</time>
      </trkpt>
      <trkpt lat="47.68235" lon="0.43408">
        <ele>46</ele>
        <time>2021-06-10T20:07:38Z</time>
      </trkpt>
      <trkpt lat="47.68222" lon="0.43382">
        <ele>47</ele>
        <time>2021-06-10T20:08:07Z</time>
      </trkpt>
      <trkpt lat="47.6821" lon="0.43348">
        <ele>47</ele>
        <time>2021-06-10T20:08:42Z</time>
      </trkpt>
      <trkpt lat="47.68193" lon="0.43246">
        <ele>46</ele>
        <time>2021-06-10T20:10:16Z</time>
      </trkpt>
      <trkpt lat="47.68178" lon="0.43218">
        <ele>46</ele>
        <time>2021-06-10T20:10:48Z</time>
      </trkpt>
      <trkpt lat="47.68152" lon="0.43158">
        <ele>46</ele>
        <time>2021-06-10T20:11:52Z</time>
      </trkpt>
      <trkpt lat="47.68145" lon="0.43126">
        <ele>47</ele>
        <time>2021-06-10T20:12:23Z</time>
      </trkpt>
      <trkpt lat="47.68138" lon="0.4309">
        <ele>47</ele>
        <time>2021-06-10T20:12:56Z</time>
      </trkpt>
      <trkpt lat="47.68137" lon="0.43054">
        <ele>48</ele>
        <time>2021-06-10T20:13:29Z</time>
      </trkpt>
      <trkpt lat="47.68139" lon="0.4302">
        <ele>48</ele>
        <time>2021-06-10T20:13:59Z</time>
      </trkpt>
      <trkpt lat="47.68136" lon="0.42984">
        <ele>49</ele>
        <time>2021-06-10T20:14:32Z</time>
      </trkpt>
      <trkpt lat="47.68138" lon="0.42967">
        <ele>49</ele>
        <time>2021-06-10T20:14:47Z</time>
      </trkpt>
      <trkpt lat="47.68147" lon="0.42936">
        <ele>49</ele>
        <time>2021-06-10T20:15:18Z</time>
      </trkpt>
      <trkpt lat="47.68145" lon="0.42927">
        <ele>49</ele>
        <time>2021-06-10T20:15:26Z</time>
      </trkpt>
      <trkpt lat="47.68133" lon="0.42923">
        <ele>48</ele>
        <time>2021-06-10T20:15:43Z</time>
      </trkpt>
      <trkpt lat="47.68119" lon="0.42896">
        <ele>48</ele>
        <time>2021-06-10T20:16:13Z</time>
      </trkpt>
      <trkpt lat="47.68089" lon="0.42733">
        <ele>47</ele>
        <time>2021-06-10T20:18:45Z</time>
      </trkpt>
      <trkpt lat="47.68079" lon="0.4269">
        <ele>47</ele>
        <time>2021-06-10T20:19:26Z</time>
      </trkpt>
      <trkpt lat="47.68122" lon="0.42683">
        <ele>47</ele>
        <time>2021-06-10T20:20:24Z</time>
      </trkpt>
      <trkpt lat="47.68164" lon="0.42665">
        <ele>46</ele>
        <time>2021-06-10T20:21:22Z</time>
      </trkpt>
      <trkpt lat="47.68184" lon="0.42654">
        <ele>47</ele>
        <time>2021-06-10T20:21:50Z</time>
      </trkpt>
      <trkpt lat="47.68212" lon="0.42634">
        <ele>49</ele>
        <time>2021-06-10T20:22:32Z</time>
      </trkpt>
      <trkpt lat="47.68232" lon="0.42601">
        <ele>50</ele>
        <time>2021-06-10T20:23:12Z</time>
      </trkpt>
      <trkpt lat="47.68264" lon="0.42616">
        <ele>55</ele>
        <time>2021-06-10T20:23:57Z</time>
      </trkpt>
      <trkpt lat="47.68289" lon="0.42595">
        <ele>60</ele>
        <time>2021-06-10T20:24:35Z</time>
      </trkpt>
      <trkpt lat="47.68296" lon="0.426">
        <ele>62</ele>
        <time>2021-06-10T20:24:45Z</time>
      </trkpt>
      <trkpt lat="47.68345" lon="0.42398">
        <ele>64</ele>
        <time>2021-06-10T20:27:58Z</time>
      </trkpt>
      <trkpt lat="47.68359" lon="0.42338">
        <ele>62</ele>
        <time>2021-06-10T20:28:55Z</time>
      </trkpt>
      <trkpt lat="47.68381" lon="0.42308">
        <ele>63</ele>
        <time>2021-06-10T20:29:35Z</time>
      </trkpt>
      <trkpt lat="47.68382" lon="0.42292">
        <ele>62</ele>
        <time>2021-06-10T20:29:49Z</time>
      </trkpt>
      <trkpt lat="47.68461" lon="0.42301">
        <ele>71</ele>
        <time>2021-06-10T20:31:35Z</time>
      </trkpt>
      <trkpt lat="47.68484" lon="0.42341">
        <ele>73</ele>
        <time>2021-06-10T20:32:22Z</time>
      </trkpt>
      <trkpt lat="47.68515" lon="0.42373">
        <ele>75</ele>
        <time>2021-06-10T20:33:13Z</time>
      </trkpt>
      <trkpt lat="47.68535" lon="0.42373">
        <ele>76</ele>
        <time>2021-06-10T20:33:40Z</time>
      </trkpt>
      <trkpt lat="47.68565" lon="0.42382">
        <ele>78</ele>
        <time>2021-06-10T20:34:20Z</time>
      </trkpt>
      <trkpt lat="47.68612" lon="0.42359">
        <ele>80</ele>
        <time>2021-06-10T20:35:26Z</time>
      </trkpt>
      <trkpt lat="47.68693" lon="0.42332">
        <ele>82</ele>
        <time>2021-06-10T20:37:17Z</time>
      </trkpt>
      <trkpt lat="47.68753" lon="0.42289">
        <ele>84</ele>
        <time>2021-06-10T20:38:46Z</time>
      </trkpt>
      <trkpt lat="47.6878" lon="0.42248">
        <ele>83</ele>
        <time>2021-06-10T20:39:38Z</time>
      </trkpt>
      <trkpt lat="47.68865" lon="0.42182">
        <ele>85</ele>
        <time>2021-06-10T20:41:46Z</time>
      </trkpt>
      <trkpt lat="47.68903" lon="0.42152">
        <ele>87</ele>
        <time>2021-06-10T20:42:43Z</time>
      </trkpt>
      <trkpt lat="47.6894" lon="0.42132">
        <ele>87</ele>
        <time>2021-06-10T20:43:36Z</time>
      </trkpt>
      <trkpt lat="47.68979" lon="0.42124">
        <ele>86</ele>
        <time>2021-06-10T20:44:28Z</time>
      </trkpt>
      <trkpt lat="47.68968" lon="0.42052">
        <ele>86</ele>
        <time>2021-06-10T20:45:34Z</time>
      </trkpt>
      <trkpt lat="47.68926" lon="0.41893">
        <ele>79</ele>
        <time>2021-06-10T20:48:08Z</time>
      </trkpt>
      <trkpt lat="47.68944" lon="0.41877">
        <ele>77</ele>
        <time>2021-06-10T20:48:36Z</time>
      </trkpt>
      <trkpt lat="47.69019" lon="0.41852">
        <ele>76</ele>
        <time>2021-06-10T20:50:18Z</time>
      </trkpt>
      <trkpt lat="47.69053" lon="0.41845">
        <ele>75</ele>
        <time>2021-06-10T20:51:04Z</time>
      </trkpt>
      <trkpt lat="47.69114" lon="0.41829">
        <ele>72</ele>
        <time>2021-06-10T20:52:27Z</time>
      </trkpt>
      <trkpt lat="47.6914" lon="0.41797">
        <ele>69</ele>
        <time>2021-06-10T20:53:12Z</time>
      </trkpt>
      <trkpt lat="47.69206" lon="0.41836">
        <ele>68</ele>
        <time>2021-06-10T20:54:47Z</time>
      </trkpt>
      <trkpt lat="47.6917" lon="0.41914">
        <ele>73</ele>
        <time>2021-06-10T20:56:12Z</time>
      </trkpt>
      <trkpt lat="47.69137" lon="0.42032">
        <ele>81</ele>
        <time>2021-06-10T20:58:06Z</time>
      </trkpt>
      <trkpt lat="47.69127" lon="0.42097">
        <ele>83</ele>
        <time>2021-06-10T20:59:06Z</time>
      </trkpt>
      <trkpt lat="47.69128" lon="0.4212">
        <ele>83</ele>
        <time>2021-06-10T20:59:27Z</time>
      </trkpt>
      <trkpt lat="47.69168" lon="0.42097">
        <ele>83</ele>
        <time>2021-06-10T21:00:24Z</time>
      </trkpt>
      <trkpt lat="47.69191" lon="0.42053">
        <ele>81</ele>
        <time>2021-06-10T21:01:14Z</time>
      </trkpt>
      <trkpt lat="47.6921" lon="0.42008">
        <ele>79</ele>
        <time>2021-06-10T21:02:02Z</time>
      </trkpt>
      <trkpt lat="47.69279" lon="0.41916">
        <ele>72</ele>
        <time>2021-06-10T21:04:06Z</time>
      </trkpt>
      <trkpt lat="47.69314" lon="0.41939">
        <ele>69</ele>
        <time>2021-06-10T21:04:57Z</time>
      </trkpt>
      <trkpt lat="47.69376" lon="0.41837">
        <ele>62</ele>
        <time>2021-06-10T21:07:00Z</time>
      </trkpt>
      <trkpt lat="47.69394" lon="0.41836">
        <ele>60</ele>
        <time>2021-06-10T21:07:24Z</time>
      </trkpt>
      <trkpt lat="47.69433" lon="0.41789">
        <ele>58</ele>
        <time>2021-06-10T21:08:31Z</time>
      </trkpt>
    </trkseg>
  </trk>
</gpx>